Time;durP1;ratioP1;P1;durP2;ratioP2;P2;SDS_P1;SDS_P2;PMS_P1;PMS_P2;Temp;Humidity;BMP_temperature;BMP_pressure;BME280_temperature;BME280_humidity;BME280_pressure;Samples;Min_cycle;Max_cycle;Signal;HPM_P1;HPM_P2
2023/05/11 00:00:38;;;;;;;;;;;20.50;59.30;;;;;;5061927;28;43127;-86
2023/05/11 00:03:05;;;;;;;;;;;20.50;60.00;;;;;;5063061;28;43431;-87
2023/05/11 00:05:30;;;;;;;;;;;20.50;59.90;;;;;;5064122;28;42858;-87
2023/05/11 00:07:56;;;;;;;;;;;20.40;59.80;;;;;;5063101;28;42863;-86
2023/05/11 00:10:21;;;;;;;;;;;20.60;59.80;;;;;;5062013;28;43265;-88
2023/05/11 00:12:47;;;;;;;;;;;20.40;59.40;;;;;;5061395;28;44578;-89
2023/05/11 00:15:12;;;;;;;;;;;20.50;59.30;;;;;;5062624;28;42916;-88
2023/05/11 00:17:38;;;;;;;;;;;20.60;59.10;;;;;;5062044;28;44928;-86
2023/05/11 00:20:04;;;;;;;;;;;20.50;59.20;;;;;;5061974;28;42930;-86
2023/05/11 00:22:29;;;;;;;;;;;20.50;59.40;;;;;;5061645;28;44931;-88
2023/05/11 00:24:55;;;;;;;;;;;20.50;59.30;;;;;;5062033;28;42952;-89
2023/05/11 00:27:20;;;;;;;;;;;20.50;59.30;;;;;;5066084;28;42949;-88
2023/05/11 00:29:46;;;;;;;;;;;20.40;59.50;;;;;;5066895;28;42800;-89
2023/05/11 00:32:11;;;;;;;;;;;20.40;59.70;;;;;;5066490;28;43547;-88
2023/05/11 00:34:37;;;;;;;;;;;20.60;59.80;;;;;;5064956;28;42978;-89
2023/05/11 00:37:03;;;;;;;;;;;20.50;59.60;;;;;;5066749;28;44075;-89
2023/05/11 00:39:28;;;;;;;;;;;20.40;59.60;;;;;;5067228;28;43042;-88
2023/05/11 00:41:54;;;;;;;;;;;20.40;59.70;;;;;;5064679;28;45392;-89
2023/05/11 00:44:20;;;;;;;;;;;20.70;59.10;;;;;;5065893;28;43104;-89
2023/05/11 00:46:46;;;;;;;;;;;20.60;58.70;;;;;;5065360;28;45440;-90
2023/05/11 00:49:15;;;;;;;;;;;20.60;58.90;;;;;;5066782;28;43041;-90
2023/05/11 00:51:42;;;;;;;;;;;20.70;59.10;;;;;;5064895;28;44652;-90
2023/05/11 00:54:13;;;;;;;;;;;20.50;58.90;;;;;;5064745;28;42978;-89
2023/05/11 00:56:40;;;;;;;;;;;20.50;59.00;;;;;;5065098;28;44640;-88
2023/05/11 00:59:05;;;;;;;;;;;20.50;59.30;;;;;;5065984;28;42882;-89
2023/05/11 01:01:31;;;;;;;;;;;20.50;59.00;;;;;;5064097;28;46152;-88
2023/05/11 01:03:56;;;;;;;;;;;20.50;58.60;;;;;;5064903;28;42902;-88
2023/05/11 01:06:32;;;;;;;;;;;20.60;58.70;;;;;;5063980;28;44437;-88
2023/05/11 01:08:57;;;;;;;;;;;20.50;58.90;;;;;;5066712;28;42966;-89
2023/05/11 01:11:36;;;;;;;;;;;20.50;58.70;;;;;;5066363;28;43929;-88
2023/05/11 01:14:05;;;;;;;;;;;20.60;58.50;;;;;;5066446;28;43008;-89
2023/05/11 01:16:33;;;;;;;;;;;20.50;58.80;;;;;;5066023;28;43841;-88
2023/05/11 01:18:59;;;;;;;;;;;20.60;58.90;;;;;;5063725;28;42891;-87
2023/05/11 01:21:26;;;;;;;;;;;20.50;58.60;;;;;;5064060;28;44758;-86
2023/05/11 01:24:10;;;;;;;;;;;20.60;58.50;;;;;;5064141;28;43111;-87
2023/05/11 01:26:36;;;;;;;;;;;20.60;58.30;;;;;;5064592;28;45786;-87
2023/05/11 01:29:04;;;;;;;;;;;20.50;58.80;;;;;;5064702;28;42986;-87
2023/05/11 01:31:31;;;;;;;;;;;20.50;58.80;;;;;;5064063;28;44796;-89
2023/05/11 01:34:02;;;;;;;;;;;20.50;58.90;;;;;;5063582;28;42980;-88
2023/05/11 01:36:30;;;;;;;;;;;20.40;58.90;;;;;;5064287;28;45665;-88
2023/05/11 01:38:59;;;;;;;;;;;20.70;58.40;;;;;;5063833;28;43121;-89
2023/05/11 01:41:26;;;;;;;;;;;20.60;58.50;;;;;;5066311;28;43030;-87
2023/05/11 01:43:57;;;;;;;;;;;20.60;58.30;;;;;;5064131;28;42970;-88
2023/05/11 01:46:25;;;;;;;;;;;20.50;58.30;;;;;;5064086;28;45595;-89
2023/05/11 01:48:51;;;;;;;;;;;20.40;58.60;;;;;;5064126;28;42892;-90
2023/05/11 01:51:18;;;;;;;;;;;20.50;58.90;;;;;;5064634;28;45624;-90
2023/05/11 01:53:44;;;;;;;;;;;20.40;58.90;;;;;;5065681;28;42958;-87
2023/05/11 01:56:10;;;;;;;;;;;20.40;58.30;;;;;;5063871;28;45647;-89
2023/05/11 01:58:41;;;;;;;;;;;20.50;58.60;;;;;;5065050;28;42955;-86
2023/05/11 02:01:08;;;;;;;;;;;20.50;58.10;;;;;;5064960;28;43709;-88
2023/05/11 02:03:35;;;;;;;;;;;20.40;58.10;;;;;;5065334;28;42892;-88
2023/05/11 02:06:01;;;;;;;;;;;20.40;58.30;;;;;;5065755;28;43538;-89
2023/05/11 02:08:29;;;;;;;;;;;20.50;57.90;;;;;;5063922;28;43219;-88
2023/05/11 02:10:55;;;;;;;;;;;20.40;58.00;;;;;;5063478;28;44040;-89
2023/05/11 02:13:21;;;;;;;;;;;20.50;58.00;;;;;;5063571;28;42913;-89
2023/05/11 02:15:49;;;;;;;;;;;20.20;58.20;;;;;;5064155;28;45514;-90
2023/05/11 02:18:15;;;;;;;;;;;20.40;58.60;;;;;;5063268;28;42776;-90
2023/05/11 02:20:41;;;;;;;;;;;20.30;57.70;;;;;;5063955;28;45584;-90
2023/05/11 02:23:08;;;;;;;;;;;20.30;58.00;;;;;;5063552;28;42835;-90
2023/05/11 02:25:33;;;;;;;;;;;20.30;57.30;;;;;;5063987;28;44748;-88
2023/05/11 02:27:59;;;;;;;;;;;20.40;57.70;;;;;;5064286;28;42893;-89
2023/05/11 02:30:26;;;;;;;;;;;20.30;58.10;;;;;;5064525;28;42965;-88
2023/05/11 02:32:52;;;;;;;;;;;;;;;;;;5065149;28;43224;-89
2023/05/11 02:35:27;;;;;;;;;;;20.30;58.00;;;;;;5064069;28;43455;-88
2023/05/11 02:37:55;;;;;;;;;;;20.20;57.60;;;;;;5063164;28;42903;-88
2023/05/11 02:40:24;;;;;;;;;;;20.40;58.00;;;;;;5064950;28;42925;-89
2023/05/11 02:42:53;;;;;;;;;;;20.30;57.10;;;;;;5063288;28;42961;-88
2023/05/11 02:45:19;;;;;;;;;;;20.40;57.10;;;;;;5064711;28;43000;-91
2023/05/11 02:47:45;;;;;;;;;;;;;;;;;;5064394;28;43513;-89
2023/05/11 02:50:11;;;;;;;;;;;20.40;56.50;;;;;;5063887;28;43751;-89
2023/05/11 02:52:40;;;;;;;;;;;20.40;56.60;;;;;;5063339;28;42955;-89
2023/05/11 02:55:06;;;;;;;;;;;20.40;57.00;;;;;;5082940;28;44711;-89
2023/05/11 02:57:32;;;;;;;;;;;20.40;57.30;;;;;;5084854;27;42920;-90
2023/05/11 02:59:58;;;;;;;;;;;20.30;57.10;;;;;;5083157;28;44426;-89
2023/05/11 03:02:24;;;;;;;;;;;20.20;57.20;;;;;;5082699;28;42986;-86
2023/05/11 03:04:49;;;;;;;;;;;20.30;57.10;;;;;;5084801;28;43002;-88
2023/05/11 03:07:15;;;;;;;;;;;20.40;57.10;;;;;;5085296;28;42829;-89
2023/05/11 03:09:40;;;;;;;;;;;20.40;57.20;;;;;;5082953;28;45142;-89
2023/05/11 03:12:07;;;;;;;;;;;20.30;57.30;;;;;;5083496;28;42889;-89
2023/05/11 03:14:33;;;;;;;;;;;20.40;56.70;;;;;;5081733;28;44767;-90
2023/05/11 03:16:59;;;;;;;;;;;21.10;57.00;;;;;;5077157;28;43492;-88
2023/05/11 03:19:26;;;;;;;;;;;20.50;56.90;;;;;;5083086;28;45517;-87
2023/05/11 03:21:53;;;;;;;;;;;20.30;56.70;;;;;;5084130;28;42930;-87
2023/05/11 03:24:18;;;;;;;;;;;20.40;56.90;;;;;;5081880;28;45680;-88
2023/05/11 03:26:44;;;;;;;;;;;20.50;57.00;;;;;;5082832;28;43280;-87
2023/05/11 03:29:12;;;;;;;;;;;20.40;57.10;;;;;;5082031;28;44438;-89
2023/05/11 03:31:37;;;;;;;;;;;20.50;56.80;;;;;;5082294;28;43107;-88
2023/05/11 03:34:03;;;;;;;;;;;20.40;56.50;;;;;;5083053;28;44423;-89
2023/05/11 03:36:41;;;;;;;;;;;;;;;;;;;;;
2023/05/11 03:39:08;;;;;;;;;;;20.60;56.60;;;;;;5083633;28;72997;-89
2023/05/11 03:41:34;;;;;;;;;;;;;;;;;;5085221;27;42956;-88
2023/05/11 03:44:02;;;;;;;;;;;21.00;56.90;;;;;;5082371;28;43874;-88
2023/05/11 03:46:28;;;;;;;;;;;20.50;56.70;;;;;;5083185;27;42898;-89
2023/05/11 03:48:54;;;;;;;;;;;20.60;56.60;;;;;;5083913;27;43448;-90
2023/05/11 03:51:20;;;;;;;;;;;20.60;56.50;;;;;;5084497;28;43032;-86
2023/05/11 03:53:45;;;;;;;;;;;20.50;56.30;;;;;;5082048;28;44749;-89
2023/05/11 03:56:11;;;;;;;;;;;20.40;56.20;;;;;;5082907;28;42988;-90
2023/05/11 03:58:37;;;;;;;;;;;20.40;56.20;;;;;;5084408;27;42910;-88
2023/05/11 04:01:12;;;;;;;;;;;20.40;56.00;;;;;;5081270;27;43099;-87
2023/05/11 04:04:13;;;;;;;;;;;20.30;55.90;;;;;;5083511;28;44228;-88
2023/05/11 04:06:47;;;;;;;;;;;20.40;56.80;;;;;;5083905;28;42911;-87
2023/05/11 04:09:12;;;;;;;;;;;20.40;56.80;;;;;;5084988;28;43947;-88
2023/05/11 04:11:38;;;;;;;;;;;20.30;57.00;;;;;;5083884;28;43192;-89
2023/05/11 04:14:13;;;;;;;;;;;20.50;56.70;;;;;;5084268;28;44973;-86
2023/05/11 04:16:44;;;;;;;;;;;20.30;56.60;;;;;;5084658;28;42965;-89
2023/05/11 04:19:12;;;;;;;;;;;20.40;57.40;;;;;;5081992;28;45604;-86
2023/05/11 04:24:57;;;;;;;;;;;20.40;57.10;;;;;;5079778;28;43944;-89
2023/05/11 04:27:31;;;;;;;;;;;20.40;57.30;;;;;;5084946;28;42913;-89
2023/05/11 04:29:57;;;;;;;;;;;;;;;;;;5085059;28;43335;-89
2023/05/11 04:32:23;;;;;;;;;;;20.40;57.20;;;;;;5086848;28;43031;-89
2023/05/11 04:34:48;;;;;;;;;;;20.50;57.80;;;;;;5084471;28;44642;-90
2023/05/11 04:37:14;;;;;;;;;;;20.50;58.30;;;;;;5084739;28;42932;-87
2023/05/11 04:39:39;;;;;;;;;;;20.40;58.10;;;;;;5079093;28;45940;-90
2023/05/11 04:42:05;;;;;;;;;;;20.40;57.60;;;;;;5086482;28;42977;-90
2023/05/11 04:44:30;;;;;;;;;;;20.50;57.60;;;;;;5086207;27;42988;-90
2023/05/11 04:46:56;;;;;;;;;;;20.50;57.60;;;;;;5081931;28;43183;-89
2023/05/11 04:49:22;;;;;;;;;;;20.50;58.00;;;;;;5084541;27;43682;-89
2023/05/11 04:51:48;;;;;;;;;;;20.40;57.70;;;;;;5086500;28;43016;-88
2023/05/11 04:54:13;;;;;;;;;;;20.50;58.00;;;;;;5084793;28;43966;-89
2023/05/11 04:56:39;;;;;;;;;;;20.40;58.10;;;;;;5086511;28;43050;-89
2023/05/11 04:59:05;;;;;;;;;;;20.30;58.30;;;;;;5087419;28;43991;-90
2023/05/11 05:01:31;;;;;;;;;;;;;;;;;;5084930;27;43227;-89
2023/05/11 05:03:57;;;;;;;;;;;20.30;57.90;;;;;;5081393;28;43445;-87
2023/05/11 05:06:22;;;;;;;;;;;20.30;57.80;;;;;;5081623;27;43044;-87
2023/05/11 05:08:48;;;;;;;;;;;19.90;57.30;;;;;;5086020;28;42842;-85
2023/05/11 05:11:13;;;;;;;;;;;20.30;57.60;;;;;;5083684;28;42852;-88
2023/05/11 05:13:40;;;;;;;;;;;20.30;57.90;;;;;;5067188;28;43355;-88
2023/05/11 05:16:05;;;;;;;;;;;20.30;57.60;;;;;;5085774;28;43061;-89
2023/05/11 05:18:30;;;;;;;;;;;20.20;57.60;;;;;;5086349;28;43046;-90
2023/05/11 05:20:56;;;;;;;;;;;20.30;57.50;;;;;;5085560;28;42903;-89
2023/05/11 05:23:22;;;;;;;;;;;20.30;57.40;;;;;;5086648;28;42984;-89
2023/05/11 05:25:47;;;;;;;;;;;20.20;57.20;;;;;;5085047;28;42999;-88
2023/05/11 05:28:13;;;;;;;;;;;20.30;57.40;;;;;;5086948;28;42882;-88
2023/05/11 05:30:38;;;;;;;;;;;20.40;57.30;;;;;;5083896;28;43012;-88
2023/05/11 05:33:04;;;;;;;;;;;20.30;56.90;;;;;;5084202;27;43635;-88
2023/05/11 05:35:29;;;;;;;;;;;20.30;56.90;;;;;;5084113;27;43048;-84
2023/05/11 05:37:55;;;;;;;;;;;20.30;57.00;;;;;;5085726;28;43106;-84
2023/05/11 05:40:20;;;;;;;;;;;20.40;57.20;;;;;;5085930;28;42960;-83
2023/05/11 05:42:46;;;;;;;;;;;20.30;57.40;;;;;;5083053;28;44610;-84
2023/05/11 05:45:12;;;;;;;;;;;20.40;57.10;;;;;;5081081;28;42920;-83
2023/05/11 05:47:38;;;;;;;;;;;20.40;56.80;;;;;;5085697;28;42875;-84
2023/05/11 05:50:04;;;;;;;;;;;20.40;56.10;;;;;;5083937;28;42997;-87
2023/05/11 05:52:30;;;;;;;;;;;20.20;56.90;;;;;;5074181;28;43674;-87
2023/05/11 05:54:56;;;;;;;;;;;20.10;56.80;;;;;;5079337;27;43000;-87
2023/05/11 05:57:21;;;;;;;;;;;20.40;57.00;;;;;;5075944;28;44028;-87
2023/05/11 05:59:47;;;;;;;;;;;20.30;56.80;;;;;;5082982;27;43016;-87
2023/05/11 06:02:12;;;;;;;;;;;20.30;56.70;;;;;;5065447;28;42867;-87
2023/05/11 06:04:38;;;;;;;;;;;20.40;56.50;;;;;;5065432;28;43004;-87
2023/05/11 06:07:03;;;;;;;;;;;20.30;56.60;;;;;;5064943;28;43354;-87
2023/05/11 06:09:29;;;;;;;;;;;20.20;56.60;;;;;;5065367;28;42866;-87
2023/05/11 06:11:54;;;;;;;;;;;20.30;56.60;;;;;;5064183;28;42973;-88
2023/05/11 06:14:21;;;;;;;;;;;20.40;56.50;;;;;;5064932;28;43133;-87
2023/05/11 06:16:47;;;;;;;;;;;20.30;56.80;;;;;;5065101;28;42945;-88
2023/05/11 06:19:12;;;;;;;;;;;20.20;57.20;;;;;;5064480;28;43061;-87
2023/05/11 06:21:40;;;;;;;;;;;20.10;57.30;;;;;;5063363;28;43656;-86
2023/05/11 06:24:06;;;;;;;;;;;20.20;57.60;;;;;;5063650;28;43124;-87
2023/05/11 06:26:31;;;;;;;;;;;20.20;57.10;;;;;;5062686;28;43010;-87
2023/05/11 06:28:57;;;;;;;;;;;20.20;57.30;;;;;;5064126;28;42915;-86
2023/05/11 06:31:23;;;;;;;;;;;20.00;57.40;;;;;;5063789;28;43819;-86
2023/05/11 06:33:48;;;;;;;;;;;22.60;58.50;;;;;;5063978;28;43438;-87
2023/05/11 06:36:14;;;;;;;;;;;20.50;57.50;;;;;;5064721;28;43002;-87
2023/05/11 06:38:40;;;;;;;;;;;20.20;57.00;;;;;;5065230;28;42995;-86
2023/05/11 06:41:06;;;;;;;;;;;20.10;56.70;;;;;;5064985;28;43727;-85
2023/05/11 06:43:32;;;;;;;;;;;20.30;57.00;;;;;;5065052;28;42950;-87
2023/05/11 06:45:57;;;;;;;;;;;20.00;56.80;;;;;;5065078;28;43250;-86
2023/05/11 06:48:24;;;;;;;;;;;20.20;57.10;;;;;;5065272;28;42986;-86
2023/05/11 06:50:50;;;;;;;;;;;20.20;57.10;;;;;;5065136;28;42981;-84
2023/05/11 06:53:16;;;;;;;;;;;20.20;56.70;;;;;;5065553;28;42977;-86
2023/05/11 06:55:42;;;;;;;;;;;20.30;56.50;;;;;;5065564;28;43317;-87
2023/05/11 06:58:08;;;;;;;;;;;20.10;56.60;;;;;;5065436;28;42894;-86
2023/05/11 07:00:33;;;;;;;;;;;20.20;56.60;;;;;;5064756;28;42958;-86
2023/05/11 07:02:59;;;;;;;;;;;20.20;56.70;;;;;;5064719;28;43028;-86
2023/05/11 07:05:24;;;;;;;;;;;20.30;56.90;;;;;;5064800;28;42937;-86
2023/05/11 07:07:50;;;;;;;;;;;20.20;57.10;;;;;;5064598;28;43039;-87
2023/05/11 07:10:16;;;;;;;;;;;20.10;57.20;;;;;;5065758;28;43429;-87
2023/05/11 07:12:41;;;;;;;;;;;20.10;57.20;;;;;;5065448;28;43116;-86
2023/05/11 07:15:07;;;;;;;;;;;20.20;57.40;;;;;;5065125;28;43578;-85
2023/05/11 07:17:33;;;;;;;;;;;20.10;57.50;;;;;;5065088;28;42839;-87
2023/05/11 07:19:58;;;;;;;;;;;20.20;57.60;;;;;;5065176;28;42865;-85
2023/05/11 07:22:24;;;;;;;;;;;20.20;57.30;;;;;;5065018;28;42958;-86
2023/05/11 07:24:49;;;;;;;;;;;20.10;57.50;;;;;;5065192;28;43695;-86
2023/05/11 07:27:15;;;;;;;;;;;20.20;57.70;;;;;;5064958;28;42933;-87
2023/05/11 07:29:40;;;;;;;;;;;20.20;57.70;;;;;;5064932;28;43035;-84
2023/05/11 07:32:06;;;;;;;;;;;20.10;57.60;;;;;;5064286;28;43255;-86
2023/05/11 07:34:32;;;;;;;;;;;20.10;57.90;;;;;;5064230;28;43678;-87
2023/05/11 07:36:58;;;;;;;;;;;;;;;;;;5068398;28;42984;-86
2023/05/11 07:39:23;;;;;;;;;;;20.10;57.90;;;;;;5071763;28;44027;-84
2023/05/11 07:41:49;;;;;;;;;;;20.10;57.50;;;;;;5071652;28;42990;-86
2023/05/11 07:44:14;;;;;;;;;;;19.90;57.50;;;;;;5071467;28;43775;-87
2023/05/11 07:46:40;;;;;;;;;;;20.20;57.70;;;;;;5071669;28;42940;-87
2023/05/11 07:49:05;;;;;;;;;;;20.20;57.60;;;;;;5071551;28;43393;-86
2023/05/11 07:51:31;;;;;;;;;;;20.10;57.90;;;;;;5071503;28;43008;-87
2023/05/11 07:53:56;;;;;;;;;;;20.10;57.70;;;;;;5069948;28;44452;-87
2023/05/11 07:56:22;;;;;;;;;;;20.10;58.00;;;;;;5071625;28;43049;-87
2023/05/11 07:58:47;;;;;;;;;;;20.20;58.20;;;;;;5071255;28;42834;-86
2023/05/11 08:01:13;;;;;;;;;;;20.20;58.00;;;;;;5070552;28;42866;-87
2023/05/11 08:03:38;;;;;;;;;;;20.20;58.10;;;;;;5070457;28;43794;-87
2023/05/11 08:06:04;;;;;;;;;;;20.30;58.20;;;;;;5070920;28;43149;-87
2023/05/11 08:08:30;;;;;;;;;;;20.30;58.00;;;;;;5071028;28;43421;-87
2023/05/11 08:10:55;;;;;;;;;;;20.30;57.70;;;;;;5071365;28;42918;-83
2023/05/11 08:13:21;;;;;;;;;;;20.30;58.20;;;;;;5071393;28;43000;-88
2023/05/11 08:15:47;;;;;;;;;;;20.30;58.40;;;;;;5070894;28;42884;-86
2023/05/11 08:18:12;;;;;;;;;;;20.30;58.60;;;;;;5071037;28;43510;-87
2023/05/11 08:20:40;;;;;;;;;;;20.20;58.80;;;;;;5070927;28;43008;-86
2023/05/11 08:23:07;;;;;;;;;;;20.20;58.60;;;;;;5071006;28;42962;-87
2023/05/11 08:25:33;;;;;;;;;;;20.20;58.70;;;;;;5071208;28;43041;-86
2023/05/11 08:27:59;;;;;;;;;;;20.20;59.00;;;;;;5070385;28;43820;-87
2023/05/11 08:30:25;;;;;;;;;;;20.20;59.20;;;;;;5070115;28;42992;-86
2023/05/11 08:32:50;;;;;;;;;;;20.40;59.30;;;;;;5070413;28;42786;-86
2023/05/11 08:35:16;;;;;;;;;;;20.40;59.70;;;;;;5070240;28;42906;-86
2023/05/11 08:37:41;;;;;;;;;;;20.10;59.60;;;;;;5070203;28;43007;-86
2023/05/11 08:40:08;;;;;;;;;;;20.20;59.60;;;;;;5070667;28;42988;-87
2023/05/11 08:42:35;;;;;;;;;;;20.40;59.60;;;;;;5070743;28;42960;-86
2023/05/11 08:45:02;;;;;;;;;;;20.20;59.40;;;;;;5070889;28;42921;-87
2023/05/11 08:47:28;;;;;;;;;;;20.20;59.30;;;;;;5068967;28;42926;-86
2023/05/11 08:49:54;;;;;;;;;;;20.20;59.50;;;;;;5067745;28;43115;-86
2023/05/11 08:52:20;;;;;;;;;;;20.10;59.10;;;;;;5067169;28;42728;-87
2023/05/11 08:54:46;;;;;;;;;;;20.10;58.90;;;;;;5067081;28;42817;-86
2023/05/11 08:57:12;;;;;;;;;;;20.20;59.10;;;;;;5066552;28;43545;-87
2023/05/11 08:59:39;;;;;;;;;;;20.10;59.00;;;;;;5066860;28;42977;-86
2023/05/11 09:02:05;;;;;;;;;;;20.10;59.00;;;;;;5066944;28;43479;-86
2023/05/11 09:04:31;;;;;;;;;;;20.00;58.70;;;;;;5066727;28;42855;-87
2023/05/11 09:06:57;;;;;;;;;;;20.20;58.80;;;;;;5067247;28;42925;-87
2023/05/11 09:09:22;;;;;;;;;;;20.20;58.90;;;;;;5067494;28;42894;-86
2023/05/11 09:11:48;;;;;;;;;;;20.10;58.70;;;;;;5067230;28;42875;-86
2023/05/11 09:14:14;;;;;;;;;;;20.10;58.70;;;;;;5066915;28;42921;-86
2023/05/11 09:16:40;;;;;;;;;;;20.20;58.90;;;;;;5067129;28;42953;-85
2023/05/11 09:19:06;;;;;;;;;;;20.20;59.00;;;;;;5066652;28;42879;-87
2023/05/11 09:21:32;;;;;;;;;;;20.00;59.90;;;;;;5081961;28;44331;-86
2023/05/11 09:23:58;;;;;;;;;;;20.20;60.70;;;;;;5066482;28;42941;-87
2023/05/11 09:26:24;;;;;;;;;;;20.30;61.30;;;;;;5066835;28;43105;-86
2023/05/11 09:28:51;;;;;;;;;;;20.20;61.90;;;;;;5067194;28;42980;-86
2023/05/11 09:31:33;;;;;;;;;;;20.20;62.20;;;;;;5066384;28;43112;-87
2023/05/11 09:34:15;;;;;;;;;;;20.20;62.50;;;;;;5082423;28;43038;-87
2023/05/11 09:36:45;;;;;;;;;;;20.10;62.80;;;;;;5066576;28;42957;-86
2023/05/11 09:39:11;;;;;;;;;;;20.90;62.90;;;;;;5066384;28;43007;-86
2023/05/11 09:41:37;;;;;;;;;;;20.00;62.10;;;;;;5082415;28;44700;-86
2023/05/11 09:44:03;;;;;;;;;;;20.20;62.40;;;;;;5066738;28;43048;-86
2023/05/11 09:46:28;;;;;;;;;;;20.10;62.50;;;;;;5065576;28;42890;-87
2023/05/11 09:48:58;;;;;;;;;;;20.20;62.60;;;;;;5067004;28;43026;-86
2023/05/11 09:51:28;;;;;;;;;;;20.10;62.70;;;;;;5066461;28;43545;-86
2023/05/11 09:53:54;;;;;;;;;;;20.10;62.50;;;;;;5066582;28;43016;-86
2023/05/11 09:56:20;;;;;;;;;;;20.10;62.60;;;;;;5066199;28;43770;-86
2023/05/11 09:58:50;;;;;;;;;;;20.00;62.20;;;;;;5065681;28;42875;-86
2023/05/11 10:01:16;;;;;;;;;;;20.10;62.10;;;;;;5066185;28;43578;-86
2023/05/11 10:03:49;;;;;;;;;;;20.20;61.80;;;;;;5066616;28;42968;-86
2023/05/11 10:06:15;;;;;;;;;;;20.10;61.60;;;;;;5066266;28;42975;-86
2023/05/11 10:08:40;;;;;;;;;;;20.20;61.70;;;;;;5066012;28;43065;-86
2023/05/11 10:11:07;;;;;;;;;;;20.20;61.30;;;;;;5065769;28;43033;-86
2023/05/11 10:13:33;;;;;;;;;;;20.20;61.70;;;;;;5064623;28;42938;-86
2023/05/11 10:16:02;;;;;;;;;;;20.30;61.80;;;;;;5065851;28;43000;-86
2023/05/11 10:18:27;;;;;;;;;;;20.20;61.60;;;;;;5066241;28;42954;-86
2023/05/11 10:20:53;;;;;;;;;;;20.10;61.80;;;;;;5066011;28;43983;-87
2023/05/11 10:23:19;;;;;;;;;;;20.10;61.30;;;;;;5065909;28;42980;-86
2023/05/11 10:25:46;;;;;;;;;;;20.00;61.60;;;;;;5066300;28;43291;-87
2023/05/11 10:28:12;;;;;;;;;;;20.10;61.20;;;;;;5066253;28;42918;-86
2023/05/11 10:30:39;;;;;;;;;;;20.20;61.20;;;;;;5065726;28;42874;-87
2023/05/11 10:33:05;;;;;;;;;;;20.10;61.00;;;;;;5066201;28;43008;-84
2023/05/11 10:35:31;;;;;;;;;;;20.00;61.00;;;;;;5065941;28;43343;-87
2023/05/11 10:37:57;;;;;;;;;;;19.90;61.30;;;;;;5065812;28;42855;-86
2023/05/11 10:40:23;;;;;;;;;;;20.00;61.00;;;;;;5065836;28;43611;-87
2023/05/11 10:43:14;;;;;;;;;;;20.00;60.70;;;;;;5065825;28;43000;-86
2023/05/11 10:45:43;;;;;;;;;;;20.10;60.40;;;;;;5061584;28;43000;-86
2023/05/11 10:48:17;;;;;;;;;;;20.10;60.10;;;;;;5065022;28;42960;-86
2023/05/11 10:51:01;;;;;;;;;;;20.20;60.60;;;;;;5065595;28;43049;-85
2023/05/11 10:53:29;;;;;;;;;;;20.10;60.80;;;;;;5065993;28;42854;-86
2023/05/11 10:55:55;;;;;;;;;;;20.10;59.00;;;;;;5065742;28;44021;-86
2023/05/11 10:58:23;;;;;;;;;;;20.10;60.20;;;;;;5065544;28;42969;-86
2023/05/11 11:01:04;;;;;;;;;;;20.00;60.20;;;;;;5065010;28;43567;-87
2023/05/11 11:03:30;;;;;;;;;;;19.90;60.50;;;;;;5065256;28;42936;-87
2023/05/11 11:05:56;;;;;;;;;;;20.10;61.00;;;;;;5065288;28;42985;-86
2023/05/11 11:08:21;;;;;;;;;;;20.00;60.90;;;;;;5065205;28;42946;-86
2023/05/11 11:10:50;;;;;;;;;;;20.00;60.80;;;;;;5062715;28;44462;-86
2023/05/11 11:13:17;;;;;;;;;;;;;;;;;;5063784;28;43090;-86
2023/05/11 11:15:51;;;;;;;;;;;20.20;61.00;;;;;;5065050;28;43016;-86
2023/05/11 11:18:21;;;;;;;;;;;20.10;61.30;;;;;;5064870;28;43107;-85
2023/05/11 11:20:48;;;;;;;;;;;20.20;61.30;;;;;;5064322;28;43119;-86
2023/05/11 11:23:32;;;;;;;;;;;20.00;61.30;;;;;;5064350;28;42996;-85
2023/05/11 11:25:57;;;;;;;;;;;20.20;61.80;;;;;;5064720;28;42847;-86
2023/05/11 11:28:23;;;;;;;;;;;20.10;62.10;;;;;;5065267;28;42910;-86
2023/05/11 11:31:09;;;;;;;;;;;20.00;62.00;;;;;;5079712;28;45187;-86
2023/05/11 11:33:34;;;;;;;;;;;20.10;62.10;;;;;;5064851;28;42949;-85
2023/05/11 11:36:00;;;;;;;;;;;20.00;62.10;;;;;;5064405;28;42963;-85
2023/05/11 11:38:26;;;;;;;;;;;20.00;61.80;;;;;;5064284;28;42887;-86
2023/05/11 11:40:51;;;;;;;;;;;20.00;61.50;;;;;;5079725;28;44651;-86
2023/05/11 11:43:17;;;;;;;;;;;20.20;61.60;;;;;;5064088;28;42942;-87
2023/05/11 11:45:55;;;;;;;;;;;20.10;61.40;;;;;;5064791;28;42929;-85
2023/05/11 11:48:22;;;;;;;;;;;20.00;61.40;;;;;;5064701;28;43017;-86
2023/05/11 11:50:48;;;;;;;;;;;20.10;61.60;;;;;;5064946;28;42922;-85
2023/05/11 11:53:32;;;;;;;;;;;20.20;61.60;;;;;;5064775;28;42874;-86
2023/05/11 11:55:58;;;;;;;;;;;19.90;61.40;;;;;;5064567;28;44059;-86
2023/05/11 11:58:39;;;;;;;;;;;20.00;61.60;;;;;;5064289;28;42947;-87
2023/05/11 12:01:08;;;;;;;;;;;20.00;61.30;;;;;;5063940;28;42968;-85
2023/05/11 12:03:35;;;;;;;;;;;20.00;61.20;;;;;;5083111;28;42907;-84
2023/05/11 12:06:00;;;;;;;;;;;20.00;61.40;;;;;;5077399;28;42950;-79
2023/05/11 12:08:28;;;;;;;;;;;20.20;61.60;;;;;;5082664;27;42902;-86
2023/05/11 12:10:53;;;;;;;;;;;19.90;61.80;;;;;;5083541;27;43550;-83
2023/05/11 12:13:19;;;;;;;;;;;20.30;62.00;;;;;;5084002;27;42984;-96
2023/05/11 12:15:45;;;;;;;;;;;20.10;61.50;;;;;;5083408;27;43289;-85
2023/05/11 12:18:20;;;;;;;;;;;20.10;61.30;;;;;;5082300;27;43209;-86
2023/05/11 12:20:46;;;;;;;;;;;20.20;61.10;;;;;;5078541;27;43067;-86
2023/05/11 12:23:12;;;;;;;;;;;20.10;61.20;;;;;;5074582;27;42940;-86
2023/05/11 12:25:38;;;;;;;;;;;20.00;61.80;;;;;;5078359;27;42877;-85
2023/05/11 12:28:04;;;;;;;;;;;20.00;61.70;;;;;;5085419;27;42929;-84
2023/05/11 12:30:31;;;;;;;;;;;20.20;61.80;;;;;;5083166;27;43093;-86
2023/05/11 12:32:58;;;;;;;;;;;20.00;61.50;;;;;;5079210;28;42886;-85
2023/05/11 12:35:28;;;;;;;;;;;20.10;61.80;;;;;;5084933;28;43280;-85
2023/05/11 12:37:54;;;;;;;;;;;20.00;61.80;;;;;;5087757;27;42936;-87
2023/05/11 12:40:19;;;;;;;;;;;19.90;61.80;;;;;;5086555;28;45461;-83
2023/05/11 12:42:49;;;;;;;;;;;20.10;62.20;;;;;;5088069;27;42839;-89
2023/05/11 12:45:14;;;;;;;;;;;19.90;61.90;;;;;;5087515;27;43567;-87
2023/05/11 12:47:40;;;;;;;;;;;19.90;62.00;;;;;;5087073;28;43024;-86
2023/05/11 12:50:06;;;;;;;;;;;19.80;62.00;;;;;;5086466;28;43103;-87
2023/05/11 12:52:31;;;;;;;;;;;20.00;62.10;;;;;;5086777;27;43043;-86
2023/05/11 12:54:59;;;;;;;;;;;20.00;61.90;;;;;;5087493;27;43053;-82
2023/05/11 12:57:26;;;;;;;;;;;20.00;61.80;;;;;;5082889;28;43135;-85
2023/05/11 13:00:24;;;;;;;;;;;19.90;61.80;;;;;;5085859;28;43603;-84
2023/05/11 13:02:50;;;;;;;;;;;20.00;62.10;;;;;;5027500;28;43026;-86
2023/05/11 13:05:17;;;;;;;;;;;20.10;62.30;;;;;;5080398;28;44926;-82
2023/05/11 13:07:43;;;;;;;;;;;20.20;62.10;;;;;;5085087;28;43008;-85
2023/05/11 13:10:10;;;;;;;;;;;20.10;62.20;;;;;;5087572;28;43515;-85
2023/05/11 13:12:46;;;;;;;;;;;20.00;62.60;;;;;;5087411;27;42921;-88
2023/05/11 13:15:11;;;;;;;;;;;19.90;62.90;;;;;;5082734;28;42858;-87
2023/05/11 13:17:38;;;;;;;;;;;19.90;62.80;;;;;;5087249;27;42937;-85
2023/05/11 13:20:15;;;;;;;;;;;19.90;62.80;;;;;;5087144;27;43190;-87
2023/05/11 13:22:41;;;;;;;;;;;19.80;62.40;;;;;;5086148;28;42839;-87
2023/05/11 13:25:08;;;;;;;;;;;19.90;62.30;;;;;;5087529;27;43569;-81
2023/05/11 13:27:34;;;;;;;;;;;20.00;62.70;;;;;;5084720;27;42961;-86
2023/05/11 13:29:59;;;;;;;;;;;19.90;62.60;;;;;;5081319;27;42829;-88
2023/05/11 13:32:25;;;;;;;;;;;20.10;62.80;;;;;;5085975;28;42795;-86
2023/05/11 13:34:50;;;;;;;;;;;20.10;63.10;;;;;;5085726;27;42944;-88
2023/05/11 13:37:16;;;;;;;;;;;20.10;63.60;;;;;;5087761;27;42830;-88
2023/05/11 13:39:41;;;;;;;;;;;20.10;63.80;;;;;;5087277;28;43769;-87
2023/05/11 13:42:07;;;;;;;;;;;19.90;63.60;;;;;;5085241;28;42902;-87
2023/05/11 13:44:32;;;;;;;;;;;20.20;63.80;;;;;;5084975;28;42929;-81
2023/05/11 13:46:58;;;;;;;;;;;19.90;63.50;;;;;;5082227;28;43016;-81
2023/05/11 13:49:23;;;;;;;;;;;20.10;63.40;;;;;;5086621;28;43090;-85
2023/05/11 13:51:50;;;;;;;;;;;20.00;63.10;;;;;;5087554;28;42958;-87
2023/05/11 13:54:15;;;;;;;;;;;20.10;62.90;;;;;;5087417;28;43505;-87
2023/05/11 13:56:41;;;;;;;;;;;20.00;63.20;;;;;;5084696;28;42942;-86
2023/05/11 13:59:07;;;;;;;;;;;20.10;63.20;;;;;;5083896;27;43034;-86
2023/05/11 14:01:32;;;;;;;;;;;20.10;63.40;;;;;;5086932;27;43000;-86
2023/05/11 14:03:58;;;;;;;;;;;20.10;63.20;;;;;;5086780;28;42870;-85
2023/05/11 14:06:24;;;;;;;;;;;20.00;62.90;;;;;;5085075;28;42913;-82
2023/05/11 14:08:50;;;;;;;;;;;20.10;62.80;;;;;;5082396;27;44460;-81
2023/05/11 14:11:16;;;;;;;;;;;20.20;62.80;;;;;;5084449;27;43034;-84
2023/05/11 14:13:41;;;;;;;;;;;20.10;62.80;;;;;;5083843;27;43954;-88
2023/05/11 14:16:08;;;;;;;;;;;20.30;62.70;;;;;;5081519;28;42955;-89
2023/05/11 14:18:34;;;;;;;;;;;20.20;62.90;;;;;;5085691;27;43569;-88
2023/05/11 14:21:00;;;;;;;;;;;20.20;63.00;;;;;;5085640;27;42947;-85
2023/05/11 14:23:25;;;;;;;;;;;20.30;63.00;;;;;;5085028;28;43032;-86